»·PEaware :: N172GW KSBD-KSBA

N172GW :: KSBD-KSBA

FLIGHT INFORMATION

Flight Status: Arrived
Operator: Privately registered:
United States
More flights under this callsign
Pilot: Glenn W. (21096)
Aircraft: CESSNA 172 SKYHAWK
(C172)
More flights by this aircraft type
Origin: KSBD San Bernardino Intl
United States
Destination: KSBA Santa Barbara Mun
United States
More flights between these airports :: More routes between these airports
Route: +PDZ V186 DEANO V27 KWANG
File this flight plan on PilotEdge
Remarks:
Altitude:
(Current/Filed)
8,000ft
Speed:
(Current/Filed)
110kts
Departed: 02-Feb-19 02:22 PM
Arrived: 02-Feb-19 03:48 PM
Distance/Time
Traveled:
130nm/1:26
Distance/Time
To Go:
Arrived

Flight Plot

Page will automatically refresh every two minutes.


Map Options




Map Legend


Flown Route
Filed Route
Departure Airport
Arrival Airport
Navaid (VOR, NDB)
Fix

Horizontal Profiles

Position Reports

Time Latitude Longitude Heading Altitude Ground
Speed
02-Feb-19 13:38 34.102166 -117.224730 94 1146ft 0kts
02-Feb-19 13:39 34.102166 -117.224730 93 1146ft 0kts
02-Feb-19 13:40 34.102166 -117.224730 94 1146ft 0kts
02-Feb-19 13:41 34.102166 -117.224730 93 1146ft 0kts
02-Feb-19 13:42 34.102166 -117.224730 93 1146ft 0kts
02-Feb-19 13:43 34.102166 -117.224730 93 1146ft 0kts
02-Feb-19 13:44 34.102166 -117.224730 93 1146ft 0kts
02-Feb-19 13:45 34.102166 -117.224730 93 1146ft 0kts
02-Feb-19 13:46 34.102166 -117.224730 93 1146ft 0kts
02-Feb-19 13:47 34.102166 -117.224730 93 1146ft 0kts
02-Feb-19 13:48 34.102166 -117.224730 93 1146ft 0kts
02-Feb-19 13:49 34.102166 -117.224730 93 1146ft 0kts
02-Feb-19 13:50 34.102166 -117.224730 93 1146ft 0kts
02-Feb-19 13:51 34.102166 -117.224730 93 1146ft 0kts
02-Feb-19 13:52 34.102166 -117.224730 93 1146ft 0kts
02-Feb-19 13:53 34.102166 -117.224730 93 1146ft 0kts
02-Feb-19 13:54 34.102166 -117.224730 93 1146ft 0kts
02-Feb-19 13:55 34.102166 -117.224730 93 1146ft 0kts
02-Feb-19 13:56 34.102166 -117.224730 93 1146ft 0kts
02-Feb-19 13:57 34.102166 -117.224730 93 1146ft 0kts
02-Feb-19 13:58 34.102166 -117.224730 93 1146ft 0kts
02-Feb-19 14:00 34.102166 -117.224730 93 1146ft 0kts
02-Feb-19 14:01 34.102166 -117.224730 93 1146ft 0kts
02-Feb-19 14:02 34.102166 -117.224730 93 1146ft 0kts
02-Feb-19 14:03 34.102166 -117.224730 93 1146ft 0kts
02-Feb-19 14:04 34.102166 -117.224730 93 1146ft 0kts
02-Feb-19 14:05 34.102165 -117.224721 96 1146ft 0kts
02-Feb-19 14:06 34.102296 -117.224544 357 1146ft 3kts
02-Feb-19 14:07 34.102284 -117.225075 177 1145ft 2kts
02-Feb-19 14:08 34.101855 -117.225001 172 1145ft 0kts
02-Feb-19 14:09 34.100719 -117.225293 240 1144ft 12kts
02-Feb-19 14:10 34.098825 -117.229186 247 1134ft 7kts
02-Feb-19 14:11 34.098035 -117.231849 251 1125ft 16kts
02-Feb-19 14:12 34.096124 -117.238263 250 1110ft 21kts
02-Feb-19 14:13 34.094395 -117.244146 250 1095ft 12kts
02-Feb-19 14:14 34.093581 -117.246867 250 1089ft 8kts
02-Feb-19 14:15 34.092700 -117.249897 250 1083ft 11kts
02-Feb-19 14:16 34.091646 -117.250787 159 1082ft 0kts
02-Feb-19 14:16 34.091646 -117.250787 159 1082ft 0kts
02-Feb-19 14:18 34.091646 -117.250787 159 1082ft 0kts
02-Feb-19 14:19 34.091646 -117.250787 159 1082ft 0kts
02-Feb-19 14:19 34.091624 -117.250777 158 1082ft 1kts
02-Feb-19 14:20 34.091194 -117.248714 69 1085ft 28kts
02-Feb-19 14:22 34.098802 -117.223958 72 1795ft 69kts
02-Feb-19 14:23 34.093572 -117.203588 167 2491ft 78kts
02-Feb-19 14:23 34.081191 -117.219236 234 3033ft 86kts
02-Feb-19 14:24 34.068795 -117.243733 230 3659ft 88kts
02-Feb-19 14:25 34.055943 -117.268108 229 4260ft 88kts
02-Feb-19 14:26 34.043683 -117.293082 230 4831ft 88kts
02-Feb-19 14:27 34.031816 -117.318079 226 5394ft 85kts
02-Feb-19 14:28 34.019460 -117.340526 220 5927ft 80kts
02-Feb-19 14:29 34.005115 -117.365124 217 5979ft 101kts
02-Feb-19 14:30 33.991083 -117.390346 225 6049ft 100kts
02-Feb-19 14:31 33.977791 -117.417682 225 6055ft 101kts
02-Feb-19 14:32 33.964318 -117.444229 225 6031ft 100kts
02-Feb-19 14:33 33.950963 -117.469479 226 5993ft 99kts
02-Feb-19 14:34 33.937280 -117.494899 225 5945ft 97kts
02-Feb-19 14:35 33.923985 -117.519751 224 5929ft 93kts
02-Feb-19 14:36 33.913460 -117.548472 292 5891ft 89kts
02-Feb-19 14:37 33.931675 -117.568182 303 5905ft 88kts
02-Feb-19 14:38 33.940694 -117.595415 289 5903ft 87kts
02-Feb-19 14:39 33.949392 -117.622793 290 5903ft 88kts
02-Feb-19 14:40 33.957904 -117.650167 290 5908ft 88kts
02-Feb-19 14:41 33.966529 -117.677276 293 5939ft 89kts
02-Feb-19 14:42 33.975238 -117.704910 294 5978ft 89kts
02-Feb-19 14:43 33.986980 -117.739777 290 5830ft 125kts
02-Feb-19 14:44 33.999151 -117.777464 288 5919ft 126kts
02-Feb-19 14:45 34.012100 -117.815299 291 6013ft 126kts
02-Feb-19 14:46 34.024027 -117.853839 284 6014ft 133kts
02-Feb-19 14:47 34.035745 -117.893213 292 5955ft 138kts
02-Feb-19 14:48 34.048470 -117.930780 285 5927ft 136kts
02-Feb-19 14:49 34.061082 -117.967525 279 5928ft 133kts
02-Feb-19 14:50 34.070567 -118.001398 282 5899ft 133kts
02-Feb-19 14:51 34.081669 -118.035098 281 5893ft 129kts
02-Feb-19 14:52 34.093867 -118.069030 285 5894ft 129kts
02-Feb-19 14:53 34.107202 -118.105444 273 5903ft 124kts
02-Feb-19 14:54 34.115244 -118.138753 274 5993ft 120kts
02-Feb-19 14:55 34.124001 -118.171257 282 5998ft 123kts
02-Feb-19 14:56 34.132575 -118.201309 281 6002ft 121kts
02-Feb-19 14:57 34.143057 -118.229524 286 6008ft 121kts
02-Feb-19 14:58 34.153034 -118.255764 281 6035ft 116kts
02-Feb-19 14:59 34.159445 -118.282664 275 6043ft 112kts
02-Feb-19 15:00 34.167210 -118.308794 280 6048ft 113kts
02-Feb-19 15:01 34.174857 -118.335109 276 6066ft 109kts
02-Feb-19 15:02 34.182646 -118.361202 280 6071ft 109kts
02-Feb-19 15:03 34.190106 -118.387424 271 6087ft 103kts
02-Feb-19 15:04 34.196753 -118.414586 274 6084ft 104kts
02-Feb-19 15:05 34.203308 -118.442358 273 6092ft 101kts
02-Feb-19 15:06 34.210453 -118.471116 278 6036ft 104kts
02-Feb-19 15:07 34.218004 -118.502453 276 6041ft 98kts
02-Feb-19 15:08 34.225723 -118.531895 276 6071ft 92kts
02-Feb-19 15:09 34.234626 -118.568310 273 6035ft 93kts
02-Feb-19 15:10 34.243840 -118.604350 279 5938ft 100kts
02-Feb-19 15:11 34.253540 -118.643202 274 5925ft 98kts
02-Feb-19 15:12 34.263483 -118.679065 271 5985ft 96kts
02-Feb-19 15:13 34.272362 -118.715139 272 5942ft 103kts
02-Feb-19 15:14 34.279624 -118.754427 237 5877ft 96kts
02-Feb-19 15:15 34.287858 -118.799287 273 5970ft 104kts
02-Feb-19 15:16 34.300061 -118.847037 274 6061ft 105kts
02-Feb-19 15:17 34.313511 -118.895963 261 6163ft 98kts
02-Feb-19 15:18 34.310389 -118.934756 258 6028ft 107kts
02-Feb-19 15:19 34.310384 -118.970128 256 5993ft 105kts
02-Feb-19 15:20 34.310950 -119.005856 261 5935ft 106kts
02-Feb-19 15:21 34.311740 -119.040810 261 5922ft 104kts
02-Feb-19 15:22 34.311567 -119.075872 259 5898ft 105kts
02-Feb-19 15:23 34.311490 -119.111089 260 5880ft 108kts
02-Feb-19 15:24 34.310853 -119.147073 252 5941ft 103kts
02-Feb-19 15:25 34.311303 -119.181437 257 5943ft 113kts
02-Feb-19 15:26 34.310577 -119.218814 246 5985ft 109kts
02-Feb-19 15:27 34.309203 -119.256310 259 6041ft 116kts
02-Feb-19 15:28 34.309590 -119.295995 264 6073ft 119kts
02-Feb-19 15:29 34.310977 -119.335771 261 6128ft 116kts
02-Feb-19 15:30 34.309141 -119.374450 267 5939ft 119kts
02-Feb-19 15:31 34.309532 -119.413662 253 5575ft 114kts
02-Feb-19 15:32 34.309286 -119.452633 266 5200ft 116kts
02-Feb-19 15:33 34.310230 -119.491264 264 4996ft 114kts
02-Feb-19 15:34 34.316075 -119.528862 295 4717ft 119kts
02-Feb-19 15:35 34.328631 -119.564960 286 4286ft 116kts
02-Feb-19 15:36 34.342418 -119.596854 288 3805ft 102kts
02-Feb-19 15:37 34.353551 -119.628083 289 3159ft 101kts
02-Feb-19 15:38 34.365511 -119.658337 294 2541ft 101kts
02-Feb-19 15:39 34.376609 -119.688959 280 2064ft 96kts
02-Feb-19 15:40 34.387800 -119.718605 284 1984ft 100kts
02-Feb-19 15:41 34.396606 -119.743394 289 1541ft 64kts
02-Feb-19 15:42 34.404275 -119.762324 286 1014ft 60kts
02-Feb-19 15:43 34.411368 -119.780684 287 870ft 60kts
02-Feb-19 15:44 34.418199 -119.799055 286 696ft 60kts
02-Feb-19 15:45 34.425309 -119.817292 286 387ft 60kts
02-Feb-19 15:46 34.427940 -119.834827 260 49ft 49kts
02-Feb-19 15:47 34.427706 -119.841256 290 14ft 2kts
02-Feb-19 15:48 34.428698 -119.842020 344 14ft 0kts
02-Feb-19 15:49 34.428698 -119.842020 344 14ft 0kts
02-Feb-19 15:50 34.429869 -119.841957 55 14ft 10kts
02-Feb-19 15:51 34.430887 -119.839208 70 14ft 11kts
02-Feb-19 15:52 34.432068 -119.835465 39 14ft 11kts
02-Feb-19 15:53 34.432848 -119.834547 156 14ft 0kts

Navigation Log

Ident Type
Flight plan parsing failed, navigation log unavailable